To NAV CANADA Home Page Login to a new session Search on AWWS site Feedback and Comments Disclaimer Vers la page française équivalente Tips FAQ What's new on the site To the Forecasts and Observations / NOTAM section To "File a Flight Plan" website Publications and other links Update of the User's profile FIC Telephone Numbers My Weather Data Folder Route Weather Data Regional Weather Data Local Weather Data To the Forecasts and Observations / NOTAM section
Request Generated 12/10/2016 at 16:32:58 UTC . Weather information available at that time is displayed.

METAR/TAF

SUDBURY/ON    

METAR CYSB 101600Z 00000KT 20SM FEW050 SCT090 SCT190 M11/M13 A3026
RMK SC2AC1CI1 SLP279=
METAR CYSB 101500Z 00000KT 20SM FEW050 FEW090 SCT190 M13/M16 A3028
RMK SC1AC1CI1 SLP284=
METAR CYSB 101400Z 30005KT 20SM FEW020 SCT090 M15/M17 A3028 RMK
SC1AC2 SLP285=

TAF CYSB 101341Z 1014/1102 33005KT P6SM FEW020 SCT160 TEMPO 1014/1018
P6SM -SHSN BKN030 OVC060
RMK NXT FCST BY 102000Z=
Your time UTC time
Weather data provided by Environment Canada and NAV CANADA